Time;durP1;ratioP1;P1;durP2;ratioP2;P2;SDS_P1;SDS_P2;PMS_P1;PMS_P2;Temp;Humidity;BMP_temperature;BMP_pressure;BME280_temperature;BME280_humidity;BME280_pressure;Samples;Min_cycle;Max_cycle;Signal;HPM_P1;HPM_P2
2022/10/29 00:00:13;;;;;;;32.72;23.02;;;13.70;99.90;;;;;;2081480;28;20099;-72
2022/10/29 00:01:13;;;;;;;31.92;22.83;;;13.70;99.90;;;;;;2081421;28;20041;-73
2022/10/29 00:02:14;;;;;;;32.40;23.45;;;13.70;99.90;;;;;;2074126;28;20026;-74
2022/10/29 00:03:14;;;;;;;36.40;23.27;;;13.70;99.90;;;;;;2073307;28;20018;-72
2022/10/29 00:04:15;;;;;;;35.00;23.02;;;13.70;99.90;;;;;;2073487;28;20628;-74
2022/10/29 00:05:16;;;;;;;38.35;25.50;;;13.70;99.90;;;;;;2074037;28;20479;-73
2022/10/29 00:06:16;;;;;;;36.60;24.17;;;13.70;99.90;;;;;;2073925;28;20112;-72
2022/10/29 00:07:17;;;;;;;33.88;24.25;;;13.70;99.90;;;;;;2073264;28;20041;-73
2022/10/29 00:08:18;;;;;;;33.97;23.75;;;13.70;99.90;;;;;;2073336;28;20033;-75
2022/10/29 00:09:18;;;;;;;31.33;22.23;;;13.70;99.90;;;;;;2073869;28;20033;-73
2022/10/29 00:10:19;;;;;;;37.42;24.83;;;13.70;99.90;;;;;;2073942;28;20033;-72
2022/10/29 00:11:21;;;;;;;38.13;26.17;;;13.70;99.90;;;;;;2073076;28;20130;-72
2022/10/29 00:12:22;;;;;;;38.67;26.30;;;13.70;99.90;;;;;;2072984;28;20030;-74
2022/10/29 00:13:23;;;;;;;36.03;23.85;;;13.70;99.90;;;;;;2081443;28;20045;-73
2022/10/29 00:14:23;;;;;;;33.35;23.15;;;13.70;99.90;;;;;;2081340;28;20054;-71
2022/10/29 00:15:24;;;;;;;30.73;22.58;;;13.70;99.90;;;;;;2074188;28;20133;-74
2022/10/29 00:16:28;;;;;;;30.10;21.60;;;13.70;99.90;;;;;;2083149;28;20038;-73
2022/10/29 00:17:28;;;;;;;30.45;20.98;;;13.70;99.90;;;;;;2083716;28;20021;-74
2022/10/29 00:18:29;;;;;;;27.85;19.95;;;13.70;99.90;;;;;;2075328;28;20507;-74
2022/10/29 00:19:30;;;;;;;27.45;19.48;;;13.70;99.90;;;;;;2075769;28;20030;-73
2022/10/29 00:20:30;;;;;;;27.50;20.05;;;13.70;99.90;;;;;;2075654;28;20038;-74
2022/10/29 00:21:33;;;;;;;27.83;20.48;;;13.70;99.90;;;;;;2075213;28;20438;-74
2022/10/29 00:22:33;;;;;;;37.50;25.23;;;13.70;99.90;;;;;;2076603;28;20469;-72
2022/10/29 00:23:34;;;;;;;36.72;24.40;;;13.60;99.90;;;;;;2076732;28;20026;-71
2022/10/29 00:24:35;;;;;;;35.65;24.00;;;13.70;99.90;;;;;;2076465;28;20029;-72
2022/10/29 00:25:36;;;;;;;33.58;22.75;;;13.60;99.90;;;;;;2074975;28;20410;-72
2022/10/29 00:26:36;;;;;;;33.83;22.60;;;13.60;99.90;;;;;;2075054;28;20028;-72
2022/10/29 00:27:37;;;;;;;32.58;22.17;;;13.60;99.90;;;;;;2075040;28;20037;-73
2022/10/29 00:28:38;;;;;;;30.83;22.17;;;13.60;99.90;;;;;;2065359;28;20038;-73
2022/10/29 00:29:38;;;;;;;29.38;21.33;;;13.60;99.90;;;;;;2065546;28;20097;-73
2022/10/29 00:30:39;;;;;;;29.80;21.35;;;13.60;99.90;;;;;;2065035;28;20054;-71
2022/10/29 00:31:40;;;;;;;30.13;20.48;;;13.60;99.90;;;;;;2065325;28;20034;-72
2022/10/29 00:32:40;;;;;;;32.53;21.30;;;13.60;99.90;;;;;;2065189;28;20045;-72
2022/10/29 00:33:41;;;;;;;30.48;21.23;;;13.60;99.90;;;;;;2073282;28;20492;-74
2022/10/29 00:34:42;;;;;;;32.38;21.40;;;13.50;99.90;;;;;;2073518;28;20649;-72
2022/10/29 00:35:54;;;;;;;29.98;20.80;;;13.50;99.90;;;;;;2073316;28;20025;-74
2022/10/29 00:36:54;;;;;;;29.67;20.42;;;13.50;99.90;;;;;;2073211;28;20041;-69
2022/10/29 00:37:55;;;;;;;33.45;23.35;;;13.50;99.90;;;;;;2073624;28;20033;-75
2022/10/29 00:38:56;;;;;;;32.63;22.67;;;13.50;99.90;;;;;;2073980;28;20121;-76
2022/10/29 00:39:56;;;;;;;32.60;21.52;;;13.50;99.90;;;;;;2072995;28;20173;-70
2022/10/29 00:40:57;;;;;;;30.45;20.85;;;13.50;99.90;;;;;;2073180;28;20026;-73
2022/10/29 00:41:59;;;;;;;30.27;20.83;;;13.50;99.90;;;;;;2073800;28;20033;-71
2022/10/29 00:43:17;;;;;;;28.52;19.92;;;13.50;99.90;;;;;;2072959;28;20088;-73
2022/10/29 00:44:19;;;;;;;26.67;19.25;;;13.40;99.90;;;;;;2073324;28;20152;-73
2022/10/29 00:45:20;;;;;;;28.00;19.75;;;13.40;99.90;;;;;;2073980;28;20076;-72
2022/10/29 00:46:32;;;;;;;25.30;19.50;;;13.40;99.90;;;;;;2073243;28;20030;-70
2022/10/29 00:47:36;;;;;;;27.20;18.92;;;13.40;99.90;;;;;;2072985;28;20040;-71
2022/10/29 00:48:42;;;;;;;27.77;19.35;;;13.40;99.90;;;;;;2073119;28;20472;-73
2022/10/29 00:49:46;;;;;;;35.08;22.83;;;13.40;99.90;;;;;;2072993;28;20526;-74
2022/10/29 00:50:47;;;;;;;32.40;23.13;;;13.40;99.90;;;;;;2073075;28;20117;-74
2022/10/29 00:51:48;;;;;;;35.00;23.48;;;13.40;99.90;;;;;;2073415;28;20037;-70
2022/10/29 00:52:49;;;;;;;32.13;23.02;;;13.40;99.90;;;;;;2073654;28;20050;-73
2022/10/29 00:53:55;;;;;;;31.48;22.23;;;13.40;99.90;;;;;;2080733;28;20124;-73
2022/10/29 00:54:59;;;;;;;31.08;21.50;;;13.50;99.90;;;;;;2080319;28;20498;-73
2022/10/29 00:56:00;;;;;;;31.17;21.17;;;13.40;99.90;;;;;;2072874;28;20488;-73
2022/10/29 00:57:15;;;;;;;29.67;21.30;;;13.40;99.90;;;;;;2073659;28;20018;-71
2022/10/29 00:58:17;;;;;;;28.27;19.40;;;13.40;99.90;;;;;;2081092;28;20053;-73
2022/10/29 00:59:18;;;;;;;26.65;19.88;;;13.40;99.90;;;;;;2080817;28;20040;-74
2022/10/29 01:00:19;;;;;;;28.40;20.65;;;13.40;99.90;;;;;;2072914;28;20475;-71
2022/10/29 01:03:42;;;;;;;28.88;20.48;;;13.30;99.90;;;;;;2073417;28;20431;-75
2022/10/29 01:04:43;;;;;;;26.77;19.25;;;13.30;99.90;;;;;;2073634;28;20030;-71
2022/10/29 01:05:45;;;;;;;27.52;19.88;;;13.30;99.90;;;;;;2073686;28;20479;-73
2022/10/29 01:06:47;;;;;;;28.65;20.02;;;13.30;99.90;;;;;;2073453;28;20028;-72
2022/10/29 01:07:48;;;;;;;29.60;20.35;;;13.30;99.90;;;;;;2073585;28;20061;-72
2022/10/29 01:08:48;;;;;;;28.27;20.27;;;13.20;99.90;;;;;;2081011;28;20033;-73
2022/10/29 01:09:49;;;;;;;28.17;20.00;;;13.20;99.90;;;;;;2081018;28;20060;-73
2022/10/29 01:10:56;;;;;;;28.20;19.50;;;13.20;99.90;;;;;;2064606;28;20023;-72
2022/10/29 01:12:07;;;;;;;26.25;19.08;;;13.20;99.90;;;;;;2072639;28;20065;-72
2022/10/29 01:13:47;;;;;;;26.20;19.38;;;13.20;99.90;;;;;;2072728;28;20038;-76
2022/10/29 01:15:19;;;;;;;25.38;18.67;;;13.20;99.90;;;;;;2073063;28;20113;-72
2022/10/29 01:16:27;;;;;;;35.10;23.85;;;13.20;99.90;;;;;;2073598;28;20034;-72
2022/10/29 01:17:56;;;;;;;40.83;26.45;;;13.20;99.90;;;;;;2081193;28;20053;-72
2022/10/29 01:19:24;;;;;;;36.03;24.48;;;13.20;99.90;;;;;;2073017;28;20419;-74
2022/10/29 01:20:37;;;;;;;36.33;24.05;;;13.20;99.90;;;;;;2073117;28;20077;-72
2022/10/29 01:21:51;;;;;;;35.75;23.42;;;13.20;99.90;;;;;;2073514;28;20033;-72
2022/10/29 01:23:05;;;;;;;32.47;23.70;;;13.20;99.90;;;;;;2073760;28;20029;-71
2022/10/29 01:24:24;;;;;;;32.83;22.13;;;13.20;99.90;;;;;;2081088;28;20478;-72
2022/10/29 01:25:37;;;;;;;34.85;24.42;;;13.20;99.90;;;;;;2078875;28;20108;-74
2022/10/29 01:27:14;;;;;;;39.63;26.08;;;13.20;99.90;;;;;;2080838;28;20623;-73
2022/10/29 01:28:53;;;;;;;33.05;23.42;;;13.20;99.90;;;;;;2075957;28;20033;-74
2022/10/29 01:30:03;;;;;;;31.08;22.55;;;13.20;99.90;;;;;;2077984;28;20040;-73
2022/10/29 01:31:24;;;;;;;37.22;23.95;;;13.20;99.90;;;;;;2079934;28;20048;-72
2022/10/29 01:33:03;;;;;;;44.67;26.45;;;13.20;99.90;;;;;;2072661;28;20026;-73
2022/10/29 01:34:17;;;;;;;38.72;24.92;;;13.30;99.90;;;;;;2062423;28;20046;-72
2022/10/29 01:35:37;;;;;;;38.50;24.77;;;13.30;99.90;;;;;;2073374;28;20026;-73
2022/10/29 01:36:56;;;;;;;35.22;23.95;;;13.30;99.90;;;;;;2073164;28;20171;-72
2022/10/29 01:38:10;;;;;;;32.78;22.58;;;13.40;99.90;;;;;;2073314;28;20108;-72
2022/10/29 01:39:23;;;;;;;30.58;21.98;;;13.30;99.90;;;;;;2073314;28;20025;-72
2022/10/29 01:40:23;;;;;;;30.80;21.42;;;13.40;99.90;;;;;;2073119;28;20032;-73
2022/10/29 01:41:29;;;;;;;28.92;21.13;;;13.40;99.90;;;;;;2073082;28;20025;-72
2022/10/29 01:42:39;;;;;;;31.50;21.27;;;13.40;99.90;;;;;;2072641;28;20026;-75
2022/10/29 01:44:17;;;;;;;28.07;20.17;;;13.40;99.90;;;;;;2057507;28;20517;-73
2022/10/29 01:45:25;;;;;;;29.95;20.83;;;13.40;99.90;;;;;;2034067;29;20031;-73
2022/10/29 01:46:51;;;;;;;29.42;20.55;;;13.40;99.90;;;;;;2040904;29;20130;-73
2022/10/29 01:47:59;;;;;;;28.13;20.67;;;13.40;99.90;;;;;;2060278;28;20050;-73
2022/10/29 01:49:06;;;;;;;29.15;21.38;;;13.50;99.90;;;;;;2073735;28;20842;-73
2022/10/29 01:50:10;;;;;;;27.77;20.48;;;13.50;99.90;;;;;;2073282;28;20096;-71
2022/10/29 01:51:29;;;;;;;28.83;20.27;;;13.50;99.90;;;;;;2073125;28;20137;-71
2022/10/29 01:52:33;;;;;;;28.05;20.58;;;13.50;99.90;;;;;;2072697;28;20101;-74
2022/10/29 01:53:36;;;;;;;30.27;19.80;;;13.50;99.90;;;;;;2072576;28;20520;-72
2022/10/29 01:54:44;;;;;;;27.90;20.42;;;13.50;99.90;;;;;;2072451;28;20022;-72
2022/10/29 01:55:45;;;;;;;28.52;19.92;;;13.50;99.90;;;;;;2072702;28;20033;-72
2022/10/29 01:56:59;;;;;;;27.15;20.17;;;13.50;99.90;;;;;;2073145;28;20017;-72
2022/10/29 01:58:04;;;;;;;26.65;19.92;;;13.50;99.90;;;;;;2072788;28;20022;-73
2022/10/29 01:59:10;;;;;;;27.00;20.23;;;13.50;99.90;;;;;;2073087;28;20117;-73
2022/10/29 02:00:14;;;;;;;33.65;22.95;;;13.50;99.90;;;;;;2080848;28;20026;-72
2022/10/29 02:01:14;;;;;;;35.00;24.60;;;13.50;99.90;;;;;;2080866;28;20472;-73
2022/10/29 02:02:23;;;;;;;31.48;22.35;;;13.50;99.90;;;;;;2073363;28;20053;-72
2022/10/29 02:03:48;;;;;;;31.10;22.25;;;13.60;99.90;;;;;;2072760;28;20022;-72
2022/10/29 02:04:59;;;;;;;29.90;21.73;;;13.50;99.90;;;;;;2068088;28;20030;-72
2022/10/29 02:06:11;;;;;;;31.55;23.13;;;13.60;99.90;;;;;;2073143;28;20538;-71
2022/10/29 02:07:30;;;;;;;37.05;25.38;;;13.60;99.90;;;;;;2073515;28;20076;-71
2022/10/29 02:08:52;;;;;;;40.55;25.95;;;13.60;99.90;;;;;;2073218;28;20540;-73
2022/10/29 02:10:15;;;;;;;37.22;24.77;;;13.60;99.90;;;;;;2080631;28;20044;-71
2022/10/29 02:11:41;;;;;;;37.88;24.27;;;13.60;99.90;;;;;;2077909;28;20062;-71
2022/10/29 02:12:47;;;;;;;38.35;26.27;;;13.60;99.90;;;;;;2064350;28;20029;-72
2022/10/29 02:14:02;;;;;;;32.95;24.25;;;13.60;99.90;;;;;;2064988;28;20095;-72
2022/10/29 02:15:06;;;;;;;36.88;24.77;;;13.60;99.90;;;;;;2072495;28;20157;-72
2022/10/29 02:16:09;;;;;;;35.95;25.23;;;13.60;99.90;;;;;;2072110;28;20029;-74
2022/10/29 02:17:09;;;;;;;43.80;27.55;;;13.50;99.90;;;;;;2072118;28;20021;-72
2022/10/29 02:18:10;;;;;;;40.63;25.23;;;13.60;99.90;;;;;;2080502;28;20119;-75
2022/10/29 02:19:10;;;;;;;35.53;24.20;;;13.60;99.90;;;;;;2080619;28;20026;-74
2022/10/29 02:20:13;;;;;;;36.42;24.52;;;13.60;99.90;;;;;;2072241;28;20523;-72
2022/10/29 02:21:16;;;;;;;33.00;23.35;;;13.60;99.90;;;;;;2073083;28;20022;-70
2022/10/29 02:22:16;;;;;;;32.75;22.63;;;13.60;99.90;;;;;;2072651;28;20061;-72
2022/10/29 02:23:17;;;;;;;30.55;22.42;;;13.60;99.90;;;;;;2080375;28;20025;-71
2022/10/29 02:24:18;;;;;;;30.52;22.13;;;13.60;99.90;;;;;;2072105;28;20760;-71
2022/10/29 02:25:18;;;;;;;36.17;23.77;;;13.60;99.90;;;;;;2056081;28;20512;-71
2022/10/29 02:26:20;;;;;;;34.60;23.23;;;13.60;99.90;;;;;;2064285;28;20393;-72
2022/10/29 02:27:21;;;;;;;28.45;22.05;;;13.60;99.90;;;;;;2073046;28;20044;-73
2022/10/29 02:28:21;;;;;;;28.98;21.33;;;13.60;99.90;;;;;;2080236;28;20029;-72
2022/10/29 02:29:22;;;;;;;29.42;20.27;;;13.60;99.90;;;;;;2080402;28;20514;-71
2022/10/29 02:30:23;;;;;;;30.10;20.73;;;13.50;99.90;;;;;;2072299;28;20476;-71
2022/10/29 02:31:24;;;;;;;29.02;21.23;;;13.60;99.90;;;;;;2064117;28;20026;-71
2022/10/29 02:32:25;;;;;;;26.08;19.60;;;13.50;99.90;;;;;;2072022;28;20605;-72
2022/10/29 02:33:25;;;;;;;26.80;19.75;;;13.50;99.90;;;;;;2080380;28;20495;-74
2022/10/29 02:34:26;;;;;;;27.88;19.60;;;13.50;99.90;;;;;;2080423;28;20026;-71
2022/10/29 02:35:27;;;;;;;25.40;19.63;;;13.50;99.90;;;;;;2072959;28;20643;-72
2022/10/29 02:36:27;;;;;;;26.92;20.25;;;13.50;99.90;;;;;;2072143;28;20054;-73
2022/10/29 02:37:28;;;;;;;24.15;19.25;;;13.50;99.90;;;;;;2072160;28;20374;-72
2022/10/29 02:38:29;;;;;;;26.25;19.90;;;13.50;99.90;;;;;;2072852;28;20655;-72
2022/10/29 02:39:30;;;;;;;35.40;23.90;;;13.50;99.90;;;;;;2072815;28;20607;-71
2022/10/29 02:40:30;;;;;;;38.92;26.73;;;13.50;99.90;;;;;;2072916;28;20030;-71
2022/10/29 02:41:31;;;;;;;35.92;24.98;;;13.50;99.90;;;;;;2072027;28;20032;-70
2022/10/29 02:42:31;;;;;;;33.05;24.02;;;13.50;99.90;;;;;;2072223;28;20036;-73
2022/10/29 02:43:32;;;;;;;33.70;23.98;;;13.50;99.90;;;;;;2071932;28;20030;-72
2022/10/29 02:44:33;;;;;;;38.60;26.52;;;13.50;99.90;;;;;;2072146;28;20038;-71
2022/10/29 02:45:33;;;;;;;36.38;26.23;;;13.50;99.90;;;;;;2072831;28;20105;-74
2022/10/29 02:46:40;;;;;;;38.42;26.23;;;13.50;99.90;;;;;;2072855;28;20396;-71
2022/10/29 02:47:41;;;;;;;38.00;25.30;;;13.50;99.90;;;;;;2072498;28;20022;-70
2022/10/29 02:48:42;;;;;;;39.05;26.10;;;13.50;99.90;;;;;;2080430;28;20125;-73
2022/10/29 02:49:43;;;;;;;36.05;24.15;;;13.50;99.90;;;;;;2080308;28;20043;-71
2022/10/29 02:50:43;;;;;;;34.53;24.10;;;13.50;99.90;;;;;;2064093;28;20037;-71
2022/10/29 02:51:44;;;;;;;35.95;25.48;;;13.50;99.90;;;;;;2064096;28;20010;-73
2022/10/29 02:52:45;;;;;;;33.97;24.17;;;13.50;99.90;;;;;;2072073;28;20026;-72
2022/10/29 02:53:46;;;;;;;34.75;23.55;;;13.60;99.90;;;;;;2072191;28;20084;-72
2022/10/29 02:54:46;;;;;;;38.30;25.98;;;13.50;99.90;;;;;;2063663;28;20037;-73
2022/10/29 02:55:47;;;;;;;33.33;23.77;;;13.60;99.90;;;;;;2071339;28;20625;-73
2022/10/29 02:56:47;;;;;;;33.10;23.67;;;13.60;99.90;;;;;;2072091;28;20034;-73
2022/10/29 02:57:48;;;;;;;36.38;24.50;;;13.50;99.90;;;;;;2072115;28;20060;-73
2022/10/29 02:58:49;;;;;;;37.35;24.15;;;13.60;99.90;;;;;;2072375;28;20029;-73
2022/10/29 02:59:49;;;;;;;34.65;24.23;;;13.60;99.90;;;;;;2079994;28;20534;-73
2022/10/29 03:00:51;;;;;;;34.47;23.98;;;13.60;99.90;;;;;;2079891;28;20487;-73
2022/10/29 03:01:52;;;;;;;32.95;23.45;;;13.60;99.90;;;;;;2071396;28;20041;-74
2022/10/29 03:02:52;;;;;;;34.58;24.58;;;13.60;99.90;;;;;;2079744;28;20048;-73
2022/10/29 03:03:53;;;;;;;39.13;26.73;;;13.60;99.90;;;;;;2071521;28;20104;-74
2022/10/29 03:04:54;;;;;;;36.33;25.70;;;13.60;99.90;;;;;;2063089;28;20085;-74
2022/10/29 03:05:54;;;;;;;37.10;24.60;;;13.50;99.90;;;;;;2071256;28;20125;-74
2022/10/29 03:06:55;;;;;;;32.63;24.08;;;13.60;99.90;;;;;;2071334;28;20036;-73
2022/10/29 03:07:55;;;;;;;30.65;22.85;;;13.60;99.90;;;;;;2071671;28;20077;-73
2022/10/29 03:08:56;;;;;;;30.98;22.85;;;13.50;99.90;;;;;;2071532;28;20057;-73
2022/10/29 03:09:57;;;;;;;29.88;22.35;;;13.50;99.90;;;;;;2071448;28;20088;-73
2022/10/29 03:10:57;;;;;;;35.72;24.27;;;13.50;99.90;;;;;;2071721;28;20460;-73
2022/10/29 03:12:00;;;;;;;33.10;23.92;;;13.50;99.90;;;;;;2071271;28;20034;-73
2022/10/29 03:13:01;;;;;;;32.28;21.30;;;13.50;99.90;;;;;;2072383;28;20028;-73
2022/10/29 03:14:02;;;;;;;31.48;22.02;;;13.50;99.90;;;;;;2072706;28;20037;-73
2022/10/29 03:15:03;;;;;;;36.22;23.80;;;13.50;99.90;;;;;;2072150;28;20130;-72
2022/10/29 03:16:04;;;;;;;33.20;24.05;;;13.50;99.90;;;;;;2072114;28;20050;-73
2022/10/29 03:17:05;;;;;;;36.28;24.05;;;13.50;99.90;;;;;;2072052;28;20040;-73
2022/10/29 03:18:05;;;;;;;32.85;24.48;;;13.50;99.90;;;;;;2063798;28;20023;-72
2022/10/29 03:19:06;;;;;;;34.17;24.88;;;13.50;99.90;;;;;;2072305;28;20037;-74
2022/10/29 03:20:07;;;;;;;35.45;24.20;;;13.50;99.90;;;;;;2072728;28;20160;-73
2022/10/29 03:21:08;;;;;;;34.00;23.60;;;13.50;99.90;;;;;;2073113;28;20038;-72
2022/10/29 03:22:09;;;;;;;31.10;23.00;;;13.50;99.90;;;;;;2072433;28;20550;-72
2022/10/29 03:23:12;;;;;;;31.40;22.13;;;13.40;99.90;;;;;;2072361;28;20038;-72
2022/10/29 03:24:13;;;;;;;28.88;22.02;;;13.40;99.90;;;;;;2071213;28;20116;-74
2022/10/29 03:25:13;;;;;;;32.75;23.45;;;13.40;99.90;;;;;;2071152;28;20033;-74
2022/10/29 03:26:14;;;;;;;36.80;26.60;;;13.40;99.90;;;;;;2072028;28;20065;-71
2022/10/29 03:27:15;;;;;;;34.90;24.92;;;13.40;99.90;;;;;;2072031;28;20064;-73
2022/10/29 03:28:16;;;;;;;35.67;23.95;;;13.40;99.90;;;;;;2072029;28;20085;-73
2022/10/29 03:29:16;;;;;;;36.40;25.02;;;13.30;99.90;;;;;;2071914;28;20033;-73
2022/10/29 03:30:17;;;;;;;35.05;24.60;;;13.30;99.90;;;;;;2071838;28;20030;-72
2022/10/29 03:31:18;;;;;;;41.67;27.50;;;13.30;99.90;;;;;;2079668;28;20041;-72
2022/10/29 03:32:18;;;;;;;36.50;25.73;;;13.20;99.90;;;;;;2071322;28;20033;-71
2022/10/29 03:33:19;;;;;;;35.83;25.08;;;13.20;99.90;;;;;;2071675;28;20093;-72
2022/10/29 03:34:19;;;;;;;36.03;24.70;;;13.20;99.90;;;;;;2072273;28;20026;-72
2022/10/29 03:35:20;;;;;;;34.67;24.23;;;13.20;99.90;;;;;;2071723;28;20049;-72
2022/10/29 03:36:21;;;;;;;37.25;25.42;;;13.20;99.90;;;;;;2079590;28;20084;-72
2022/10/29 03:37:22;;;;;;;35.30;24.05;;;13.20;99.90;;;;;;2079539;28;20022;-72
2022/10/29 03:38:22;;;;;;;35.67;24.60;;;13.10;99.90;;;;;;2072114;28;20042;-72
2022/10/29 03:39:23;;;;;;;33.35;23.58;;;13.10;99.90;;;;;;2073146;28;20037;-72
2022/10/29 03:40:24;;;;;;;30.48;23.10;;;13.10;99.90;;;;;;2073413;28;20059;-73
2022/10/29 03:41:24;;;;;;;31.05;22.83;;;13.10;99.90;;;;;;2073479;28;20018;-72
2022/10/29 03:42:25;;;;;;;33.83;24.25;;;13.10;99.90;;;;;;2072429;28;20036;-72
2022/10/29 03:43:25;;;;;;;33.92;24.60;;;13.00;99.90;;;;;;2073032;28;20033;-72
2022/10/29 03:44:26;;;;;;;33.95;24.15;;;13.00;99.90;;;;;;2080913;28;20026;-72
2022/10/29 03:45:27;;;;;;;34.95;23.67;;;13.00;99.90;;;;;;2081828;28;20061;-73
2022/10/29 03:46:27;;;;;;;32.50;23.25;;;12.90;99.90;;;;;;2074171;28;20030;-73
2022/10/29 03:47:28;;;;;;;33.38;23.48;;;12.90;99.90;;;;;;2072475;28;20022;-73
2022/10/29 03:48:29;;;;;;;30.83;22.30;;;12.90;99.90;;;;;;2072482;28;20638;-72
2022/10/29 03:49:30;;;;;;;30.30;22.05;;;12.90;99.90;;;;;;2073238;28;20033;-74
2022/10/29 03:50:30;;;;;;;32.00;22.42;;;12.90;99.90;;;;;;2072521;28;20046;-73
2022/10/29 03:51:31;;;;;;;31.38;22.15;;;12.80;99.90;;;;;;2072508;28;20030;-73
2022/10/29 03:52:31;;;;;;;31.67;22.42;;;12.80;99.90;;;;;;2072629;28;20034;-73
2022/10/29 03:53:34;;;;;;;30.02;21.77;;;12.80;99.90;;;;;;2071876;28;20442;-71
2022/10/29 03:54:35;;;;;;;29.63;21.67;;;12.80;99.90;;;;;;2063986;28;20504;-72
2022/10/29 03:55:36;;;;;;;32.58;22.55;;;12.80;99.90;;;;;;2071981;28;20104;-72
2022/10/29 03:56:36;;;;;;;30.95;23.15;;;12.80;99.90;;;;;;2072065;28;20034;-71
2022/10/29 03:57:37;;;;;;;32.58;22.08;;;12.80;99.90;;;;;;2072323;28;20026;-73
2022/10/29 03:58:37;;;;;;;29.38;21.60;;;12.70;99.90;;;;;;2072168;28;20656;-72
2022/10/29 03:59:38;;;;;;;30.95;21.85;;;12.70;99.90;;;;;;2072395;28;20029;-73
2022/10/29 04:00:39;;;;;;;30.75;21.95;;;12.70;99.90;;;;;;2072396;28;20161;-72
2022/10/29 04:01:39;;;;;;;33.30;22.42;;;12.70;99.90;;;;;;2071020;28;20120;-72
2022/10/29 04:02:40;;;;;;;29.80;21.40;;;12.70;99.90;;;;;;2071492;28;20488;-73
2022/10/29 04:03:42;;;;;;;31.55;22.45;;;12.70;99.90;;;;;;2072278;28;20025;-71
2022/10/29 04:04:43;;;;;;;31.80;22.73;;;12.70;99.90;;;;;;2072351;28;20459;-74
2022/10/29 04:05:44;;;;;;;35.85;24.88;;;12.70;99.90;;;;;;2072387;28;20044;-72
2022/10/29 04:06:44;;;;;;;37.83;26.45;;;12.70;99.90;;;;;;2072293;28;20026;-72
2022/10/29 04:07:45;;;;;;;35.35;25.10;;;12.70;99.90;;;;;;2071791;28;20582;-72
2022/10/29 04:08:45;;;;;;;31.95;23.92;;;12.70;99.90;;;;;;2079789;28;20029;-72
2022/10/29 04:09:46;;;;;;;33.72;24.48;;;12.70;99.90;;;;;;2071791;28;20063;-73
2022/10/29 04:10:48;;;;;;;31.08;23.40;;;12.70;99.90;;;;;;2071938;28;20036;-72
2022/10/29 04:11:49;;;;;;;31.20;22.48;;;12.70;99.90;;;;;;2071664;28;20026;-74
2022/10/29 04:12:50;;;;;;;32.25;23.08;;;12.60;99.90;;;;;;2079275;28;20756;-73
2022/10/29 04:13:52;;;;;;;32.90;23.10;;;12.60;99.90;;;;;;2071533;28;20041;-73
2022/10/29 04:14:52;;;;;;;31.05;22.25;;;12.60;99.90;;;;;;2071297;28;20536;-73
2022/10/29 04:15:54;;;;;;;32.35;23.02;;;12.60;99.90;;;;;;2072897;28;20026;-73
2022/10/29 04:16:56;;;;;;;33.70;22.90;;;12.60;99.90;;;;;;2073278;28;20041;-72
2022/10/29 04:17:56;;;;;;;34.67;24.63;;;12.60;99.90;;;;;;2073315;28;20129;-74
2022/10/29 04:18:57;;;;;;;37.65;25.70;;;12.50;99.90;;;;;;2073337;28;20025;-73
2022/10/29 04:19:58;;;;;;;36.05;25.40;;;12.50;99.90;;;;;;2064491;28;20073;-73
2022/10/29 04:21:00;;;;;;;36.67;26.27;;;12.60;99.90;;;;;;2063601;28;20034;-73
2022/10/29 04:22:01;;;;;;;36.28;25.73;;;12.60;99.90;;;;;;2080779;28;20029;-72
2022/10/29 04:23:01;;;;;;;38.75;25.63;;;12.50;99.90;;;;;;2080978;28;20495;-73
2022/10/29 04:24:02;;;;;;;38.50;26.15;;;12.60;99.90;;;;;;2080765;28;20022;-73
2022/10/29 04:25:03;;;;;;;40.60;26.55;;;12.50;99.90;;;;;;2072417;28;20123;-73
2022/10/29 04:26:04;;;;;;;36.92;26.63;;;12.50;99.90;;;;;;2072363;28;20527;-73
2022/10/29 04:27:05;;;;;;;37.58;25.48;;;12.50;99.90;;;;;;2080883;28;20037;-74
2022/10/29 04:28:05;;;;;;;38.45;26.27;;;12.50;99.90;;;;;;2073360;28;20041;-73
2022/10/29 04:29:06;;;;;;;41.60;27.38;;;12.50;99.90;;;;;;2073421;28;20079;-72
2022/10/29 04:30:07;;;;;;;44.00;28.73;;;12.50;99.90;;;;;;2073291;28;20030;-75
2022/10/29 04:31:11;;;;;;;36.25;26.25;;;12.50;99.90;;;;;;2072631;28;20117;-73
2022/10/29 04:32:11;;;;;;;34.95;24.40;;;12.60;99.90;;;;;;2072687;28;20033;-73
2022/10/29 04:33:12;;;;;;;34.80;24.98;;;12.60;99.90;;;;;;2080783;28;20560;-73
2022/10/29 04:34:12;;;;;;;33.53;24.25;;;12.50;99.90;;;;;;2072462;28;20034;-73
2022/10/29 04:35:13;;;;;;;35.08;24.45;;;12.50;99.90;;;;;;2072475;28;20032;-74
2022/10/29 04:36:14;;;;;;;34.92;24.05;;;12.50;99.90;;;;;;2080591;28;20033;-73
2022/10/29 04:37:14;;;;;;;35.08;24.02;;;12.50;99.90;;;;;;2073071;28;20034;-73
2022/10/29 04:38:15;;;;;;;33.50;23.83;;;12.50;99.90;;;;;;2072625;28;20034;-72
2022/10/29 04:39:16;;;;;;;32.67;23.80;;;12.50;99.90;;;;;;2072549;28;20168;-73
2022/10/29 04:40:16;;;;;;;34.45;24.42;;;12.40;99.90;;;;;;2072771;28;20045;-73
2022/10/29 04:41:17;;;;;;;37.03;25.85;;;12.40;99.90;;;;;;2072520;28;20583;-72
2022/10/29 04:42:18;;;;;;;34.42;25.27;;;12.40;99.90;;;;;;2072415;28;20058;-72
2022/10/29 04:43:19;;;;;;;37.78;25.88;;;12.40;99.90;;;;;;2072766;28;20045;-72
2022/10/29 04:44:20;;;;;;;39.05;26.52;;;12.40;99.90;;;;;;2072471;28;20765;-73
2022/10/29 04:45:21;;;;;;;37.50;26.50;;;12.40;99.90;;;;;;2072519;28;20409;-72
2022/10/29 04:46:21;;;;;;;35.53;25.30;;;12.40;99.90;;;;;;2072464;28;20056;-71
2022/10/29 04:47:22;;;;;;;35.72;25.10;;;12.40;99.90;;;;;;2073089;28;20132;-72
2022/10/29 04:48:24;;;;;;;36.80;25.02;;;12.40;99.90;;;;;;2072410;28;20037;-72
2022/10/29 04:49:25;;;;;;;35.13;24.27;;;12.40;99.90;;;;;;2064503;28;20030;-72
2022/10/29 04:50:26;;;;;;;34.00;24.17;;;12.40;99.90;;;;;;2072452;28;20136;-73
2022/10/29 04:51:27;;;;;;;33.35;24.45;;;12.30;99.90;;;;;;2072093;28;20174;-72
2022/10/29 04:52:28;;;;;;;36.95;25.58;;;12.30;99.90;;;;;;2064463;28;20111;-73
2022/10/29 04:53:29;;;;;;;36.08;25.70;;;12.30;99.90;;;;;;2064472;28;20031;-73
2022/10/29 04:54:29;;;;;;;36.22;25.55;;;12.30;99.90;;;;;;2072977;28;20511;-73
2022/10/29 04:55:30;;;;;;;37.00;26.63;;;12.30;99.90;;;;;;2072498;28;20112;-74
2022/10/29 04:56:31;;;;;;;36.30;25.33;;;12.20;99.90;;;;;;2080532;28;20033;-73
2022/10/29 04:57:32;;;;;;;33.33;24.85;;;12.20;99.90;;;;;;2080669;28;20684;-73
2022/10/29 04:58:32;;;;;;;37.03;25.30;;;12.20;99.90;;;;;;2080666;28;20103;-73
2022/10/29 04:59:33;;;;;;;36.83;25.88;;;12.20;99.90;;;;;;2080493;28;20111;-72
2022/10/29 05:00:33;;;;;;;35.28;25.27;;;12.20;99.90;;;;;;2080842;28;20033;-73
2022/10/29 05:01:34;;;;;;;36.05;25.38;;;12.20;99.90;;;;;;2072932;28;20034;-72
2022/10/29 05:02:35;;;;;;;36.00;25.35;;;12.20;99.90;;;;;;2072628;28;20033;-73
2022/10/29 05:03:35;;;;;;;35.08;24.58;;;12.20;99.90;;;;;;2064534;28;20038;-73
2022/10/29 05:04:36;;;;;;;33.97;25.15;;;12.20;99.90;;;;;;2072648;28;20575;-73
2022/10/29 05:05:38;;;;;;;35.72;24.95;;;12.20;99.90;;;;;;2064472;28;20043;-73
2022/10/29 05:06:38;;;;;;;36.25;25.25;;;12.20;99.90;;;;;;2064373;28;20139;-75
2022/10/29 05:07:42;;;;;;;35.72;25.20;;;12.20;99.90;;;;;;2072979;28;20217;-72
2022/10/29 05:08:43;;;;;;;35.55;25.35;;;12.10;99.90;;;;;;2072995;28;20034;-75
2022/10/29 05:09:43;;;;;;;35.83;26.05;;;12.10;99.90;;;;;;2064676;28;20066;-72
2022/10/29 05:10:44;;;;;;;38.15;27.17;;;12.10;99.90;;;;;;2072933;28;20104;-74
2022/10/29 05:11:44;;;;;;;40.83;27.65;;;12.10;99.90;;;;;;2080267;28;20112;-73
2022/10/29 05:12:45;;;;;;;38.40;27.00;;;12.10;99.90;;;;;;2080476;28;20024;-73
2022/10/29 05:13:46;;;;;;;36.70;26.25;;;12.10;99.90;;;;;;2072875;28;20101;-73
2022/10/29 05:14:46;;;;;;;38.63;25.58;;;12.10;99.90;;;;;;2080470;28;20655;-72
2022/10/29 05:15:51;;;;;;;36.28;25.73;;;12.10;99.90;;;;;;2080383;28;20021;-72
2022/10/29 05:16:51;;;;;;;37.45;26.50;;;12.10;99.90;;;;;;2064412;28;20033;-73
2022/10/29 05:17:52;;;;;;;36.00;25.35;;;12.10;99.90;;;;;;2064077;28;20042;-72
2022/10/29 05:18:53;;;;;;;35.55;25.35;;;12.10;99.90;;;;;;2072169;28;20126;-73
2022/10/29 05:19:53;;;;;;;34.10;24.75;;;12.10;99.90;;;;;;2079908;28;20040;-73
2022/10/29 05:20:55;;;;;;;35.33;24.67;;;12.10;99.90;;;;;;2080431;28;20033;-73
2022/10/29 05:21:55;;;;;;;34.65;24.38;;;12.10;99.90;;;;;;2072706;28;20040;-73
2022/10/29 05:23:01;;;;;;;37.83;26.08;;;12.10;99.90;;;;;;2072948;28;20045;-73
2022/10/29 05:24:01;;;;;;;37.78;25.33;;;12.10;99.90;;;;;;2072873;28;20061;-73
2022/10/29 05:25:02;;;;;;;37.15;25.42;;;12.10;99.90;;;;;;2072779;28;20045;-73